sensor_id;sensor_type;location;lat;lon;timestamp;P1;durP1;ratioP1;P2;durP2;ratioP2
26060;SDS011;36331;51.378;0.018;2023-03-26T00:02:13;20.15;;;3.72;;
26060;SDS011;36331;51.378;0.018;2023-03-26T00:04:42;24.55;;;4.43;;
26060;SDS011;36331;51.378;0.018;2023-03-26T00:07:12;25.08;;;4.95;;
26060;SDS011;36331;51.378;0.018;2023-03-26T00:09:42;25.88;;;4.10;;
26060;SDS011;36331;51.378;0.018;2023-03-26T00:12:11;19.38;;;4.75;;
26060;SDS011;36331;51.378;0.018;2023-03-26T00:14:41;21.00;;;3.90;;
26060;SDS011;36331;51.378;0.018;2023-03-26T00:17:12;18.83;;;4.50;;
26060;SDS011;36331;51.378;0.018;2023-03-26T00:19:41;28.35;;;4.32;;
26060;SDS011;36331;51.378;0.018;2023-03-26T00:22:11;21.77;;;5.03;;
26060;SDS011;36331;51.378;0.018;2023-03-26T00:24:43;16.27;;;4.88;;
26060;SDS011;36331;51.378;0.018;2023-03-26T00:27:15;23.27;;;5.60;;
26060;SDS011;36331;51.378;0.018;2023-03-26T00:29:44;22.60;;;4.35;;
26060;SDS011;36331;51.378;0.018;2023-03-26T00:32:16;23.80;;;4.57;;
26060;SDS011;36331;51.378;0.018;2023-03-26T00:34:45;24.50;;;5.35;;
26060;SDS011;36331;51.378;0.018;2023-03-26T00:37:17;24.38;;;4.25;;
26060;SDS011;36331;51.378;0.018;2023-03-26T00:39:52;18.45;;;3.97;;
26060;SDS011;36331;51.378;0.018;2023-03-26T00:42:27;14.35;;;3.55;;
26060;SDS011;36331;51.378;0.018;2023-03-26T00:44:57;19.65;;;3.55;;
26060;SDS011;36331;51.378;0.018;2023-03-26T00:47:29;23.42;;;4.10;;
26060;SDS011;36331;51.378;0.018;2023-03-26T00:49:58;27.58;;;6.47;;
26060;SDS011;36331;51.378;0.018;2023-03-26T00:52:27;27.27;;;5.78;;
26060;SDS011;36331;51.378;0.018;2023-03-26T00:54:57;29.98;;;4.80;;
26060;SDS011;36331;51.378;0.018;2023-03-26T00:57:28;25.08;;;5.78;;
26060;SDS011;36331;51.378;0.018;2023-03-26T01:00:07;17.83;;;4.53;;
26060;SDS011;36331;51.378;0.018;2023-03-26T01:02:44;18.90;;;5.05;;
26060;SDS011;36331;51.378;0.018;2023-03-26T01:05:38;23.27;;;5.03;;
26060;SDS011;36331;51.378;0.018;2023-03-26T01:08:14;29.55;;;5.40;;
26060;SDS011;36331;51.378;0.018;2023-03-26T01:10:45;16.70;;;5.60;;
26060;SDS011;36331;51.378;0.018;2023-03-26T01:13:17;24.67;;;7.07;;
26060;SDS011;36331;51.378;0.018;2023-03-26T01:15:47;21.67;;;5.03;;
26060;SDS011;36331;51.378;0.018;2023-03-26T01:18:21;27.65;;;6.20;;
26060;SDS011;36331;51.378;0.018;2023-03-26T01:20:53;23.58;;;5.32;;
26060;SDS011;36331;51.378;0.018;2023-03-26T01:23:33;24.88;;;5.20;;
26060;SDS011;36331;51.378;0.018;2023-03-26T01:26:06;24.85;;;5.93;;
26060;SDS011;36331;51.378;0.018;2023-03-26T01:28:38;21.42;;;4.63;;
26060;SDS011;36331;51.378;0.018;2023-03-26T01:31:09;20.38;;;4.47;;
26060;SDS011;36331;51.378;0.018;2023-03-26T01:33:41;21.55;;;5.30;;
26060;SDS011;36331;51.378;0.018;2023-03-26T01:36:15;29.33;;;5.95;;
26060;SDS011;36331;51.378;0.018;2023-03-26T01:38:47;14.95;;;4.38;;
26060;SDS011;36331;51.378;0.018;2023-03-26T01:41:20;15.90;;;3.80;;
26060;SDS011;36331;51.378;0.018;2023-03-26T01:43:53;20.63;;;3.50;;
26060;SDS011;36331;51.378;0.018;2023-03-26T01:46:25;12.00;;;3.55;;
26060;SDS011;36331;51.378;0.018;2023-03-26T01:48:55;25.65;;;4.63;;
26060;SDS011;36331;51.378;0.018;2023-03-26T01:51:25;20.48;;;4.18;;
26060;SDS011;36331;51.378;0.018;2023-03-26T01:53:54;15.55;;;3.55;;
26060;SDS011;36331;51.378;0.018;2023-03-26T01:56:27;18.98;;;4.25;;
26060;SDS011;36331;51.378;0.018;2023-03-26T01:59:03;18.95;;;3.10;;
26060;SDS011;36331;51.378;0.018;2023-03-26T02:01:34;25.02;;;4.97;;
26060;SDS011;36331;51.378;0.018;2023-03-26T02:04:14;14.68;;;3.10;;
26060;SDS011;36331;51.378;0.018;2023-03-26T02:06:46;17.08;;;3.97;;
26060;SDS011;36331;51.378;0.018;2023-03-26T02:09:20;17.15;;;3.83;;
26060;SDS011;36331;51.378;0.018;2023-03-26T02:11:52;15.27;;;3.00;;
26060;SDS011;36331;51.378;0.018;2023-03-26T02:14:21;27.77;;;4.03;;
26060;SDS011;36331;51.378;0.018;2023-03-26T02:16:50;19.35;;;3.15;;
26060;SDS011;36331;51.378;0.018;2023-03-26T02:19:20;23.02;;;2.75;;
26060;SDS011;36331;51.378;0.018;2023-03-26T02:21:50;17.90;;;3.65;;
26060;SDS011;36331;51.378;0.018;2023-03-26T02:24:27;16.08;;;2.55;;
26060;SDS011;36331;51.378;0.018;2023-03-26T02:26:58;13.30;;;2.83;;
26060;SDS011;36331;51.378;0.018;2023-03-26T02:29:28;9.95;;;2.85;;
26060;SDS011;36331;51.378;0.018;2023-03-26T02:31:58;9.68;;;2.55;;
26060;SDS011;36331;51.378;0.018;2023-03-26T02:34:28;13.20;;;3.30;;
26060;SDS011;36331;51.378;0.018;2023-03-26T02:36:57;18.23;;;3.65;;
26060;SDS011;36331;51.378;0.018;2023-03-26T02:39:27;9.73;;;2.40;;
26060;SDS011;36331;51.378;0.018;2023-03-26T02:42:03;8.52;;;1.98;;
26060;SDS011;36331;51.378;0.018;2023-03-26T02:44:39;7.63;;;2.45;;
26060;SDS011;36331;51.378;0.018;2023-03-26T02:47:18;6.38;;;2.58;;
26060;SDS011;36331;51.378;0.018;2023-03-26T02:50:06;14.35;;;3.42;;
26060;SDS011;36331;51.378;0.018;2023-03-26T02:53:11;10.30;;;2.70;;
26060;SDS011;36331;51.378;0.018;2023-03-26T02:55:44;9.65;;;3.20;;
26060;SDS011;36331;51.378;0.018;2023-03-26T02:58:15;9.23;;;1.80;;
26060;SDS011;36331;51.378;0.018;2023-03-26T03:00:45;11.83;;;2.33;;
26060;SDS011;36331;51.378;0.018;2023-03-26T03:03:26;10.65;;;2.58;;
26060;SDS011;36331;51.378;0.018;2023-03-26T03:06:16;11.52;;;2.20;;
26060;SDS011;36331;51.378;0.018;2023-03-26T03:08:55;12.05;;;2.78;;
26060;SDS011;36331;51.378;0.018;2023-03-26T03:11:50;10.73;;;2.92;;
26060;SDS011;36331;51.378;0.018;2023-03-26T03:14:21;13.00;;;2.92;;
26060;SDS011;36331;51.378;0.018;2023-03-26T03:16:50;6.70;;;2.08;;
26060;SDS011;36331;51.378;0.018;2023-03-26T03:19:21;14.40;;;3.53;;
26060;SDS011;36331;51.378;0.018;2023-03-26T03:21:50;10.98;;;1.92;;
26060;SDS011;36331;51.378;0.018;2023-03-26T03:24:19;10.70;;;2.10;;
26060;SDS011;36331;51.378;0.018;2023-03-26T03:26:49;7.72;;;2.03;;
26060;SDS011;36331;51.378;0.018;2023-03-26T03:29:32;12.70;;;2.40;;
26060;SDS011;36331;51.378;0.018;2023-03-26T03:32:22;11.23;;;1.92;;
26060;SDS011;36331;51.378;0.018;2023-03-26T03:34:54;8.02;;;2.47;;
26060;SDS011;36331;51.378;0.018;2023-03-26T03:37:24;9.02;;;1.80;;
26060;SDS011;36331;51.378;0.018;2023-03-26T03:39:54;7.00;;;2.00;;
26060;SDS011;36331;51.378;0.018;2023-03-26T03:42:26;7.25;;;1.90;;
26060;SDS011;36331;51.378;0.018;2023-03-26T03:45:01;4.22;;;1.20;;
26060;SDS011;36331;51.378;0.018;2023-03-26T03:47:47;4.32;;;1.58;;
26060;SDS011;36331;51.378;0.018;2023-03-26T03:50:22;5.43;;;1.10;;
26060;SDS011;36331;51.378;0.018;2023-03-26T03:53:08;4.32;;;1.70;;
26060;SDS011;36331;51.378;0.018;2023-03-26T03:55:45;7.22;;;0.90;;
26060;SDS011;36331;51.378;0.018;2023-03-26T03:58:21;4.32;;;0.90;;
26060;SDS011;36331;51.378;0.018;2023-03-26T04:03:48;5.32;;;0.75;;
26060;SDS011;36331;51.378;0.018;2023-03-26T04:06:21;1.80;;;0.90;;
26060;SDS011;36331;51.378;0.018;2023-03-26T04:08:52;4.07;;;0.80;;
26060;SDS011;36331;51.378;0.018;2023-03-26T04:11:22;5.22;;;1.20;;
26060;SDS011;36331;51.378;0.018;2023-03-26T04:14:10;2.25;;;0.70;;
26060;SDS011;36331;51.378;0.018;2023-03-26T04:16:50;3.78;;;0.73;;
26060;SDS011;36331;51.378;0.018;2023-03-26T04:19:20;3.67;;;1.08;;
26060;SDS011;36331;51.378;0.018;2023-03-26T04:21:51;2.90;;;0.90;;
26060;SDS011;36331;51.378;0.018;2023-03-26T04:24:20;3.60;;;0.82;;
26060;SDS011;36331;51.378;0.018;2023-03-26T04:27:23;1.60;;;0.57;;
26060;SDS011;36331;51.378;0.018;2023-03-26T04:30:02;1.95;;;0.50;;
26060;SDS011;36331;51.378;0.018;2023-03-26T04:32:33;2.97;;;1.02;;
26060;SDS011;36331;51.378;0.018;2023-03-26T04:35:09;3.03;;;0.50;;
26060;SDS011;36331;51.378;0.018;2023-03-26T04:37:42;4.13;;;0.50;;
26060;SDS011;36331;51.378;0.018;2023-03-26T04:40:16;1.45;;;0.70;;
26060;SDS011;36331;51.378;0.018;2023-03-26T04:42:59;2.00;;;0.55;;
26060;SDS011;36331;51.378;0.018;2023-03-26T04:45:58;0.80;;;0.40;;
26060;SDS011;36331;51.378;0.018;2023-03-26T04:48:31;1.50;;;0.40;;
26060;SDS011;36331;51.378;0.018;2023-03-26T04:51:02;2.03;;;0.45;;
26060;SDS011;36331;51.378;0.018;2023-03-26T04:53:33;4.05;;;0.57;;
26060;SDS011;36331;51.378;0.018;2023-03-26T04:56:24;1.10;;;0.80;;
26060;SDS011;36331;51.378;0.018;2023-03-26T04:59:10;1.35;;;0.50;;
26060;SDS011;36331;51.378;0.018;2023-03-26T05:01:42;1.48;;;0.40;;
26060;SDS011;36331;51.378;0.018;2023-03-26T05:04:15;5.38;;;1.42;;
26060;SDS011;36331;51.378;0.018;2023-03-26T05:06:46;2.25;;;0.40;;
26060;SDS011;36331;51.378;0.018;2023-03-26T05:09:22;1.50;;;0.50;;
26060;SDS011;36331;51.378;0.018;2023-03-26T05:12:09;3.15;;;0.80;;
26060;SDS011;36331;51.378;0.018;2023-03-26T05:14:56;1.85;;;0.55;;
26060;SDS011;36331;51.378;0.018;2023-03-26T05:20:31;0.50;;;0.47;;
26060;SDS011;36331;51.378;0.018;2023-03-26T05:23:03;2.10;;;0.35;;
26060;SDS011;36331;51.378;0.018;2023-03-26T05:25:36;2.10;;;0.85;;
26060;SDS011;36331;51.378;0.018;2023-03-26T05:28:13;3.33;;;0.50;;
26060;SDS011;36331;51.378;0.018;2023-03-26T05:30:52;1.63;;;0.60;;
26060;SDS011;36331;51.378;0.018;2023-03-26T05:33:23;0.82;;;0.40;;
26060;SDS011;36331;51.378;0.018;2023-03-26T05:35:59;1.25;;;0.68;;
26060;SDS011;36331;51.378;0.018;2023-03-26T05:38:32;3.40;;;0.70;;
26060;SDS011;36331;51.378;0.018;2023-03-26T05:41:04;0.93;;;0.43;;
26060;SDS011;36331;51.378;0.018;2023-03-26T05:43:36;1.40;;;0.47;;
26060;SDS011;36331;51.378;0.018;2023-03-26T05:46:19;1.77;;;0.40;;
26060;SDS011;36331;51.378;0.018;2023-03-26T05:48:49;1.23;;;0.50;;
26060;SDS011;36331;51.378;0.018;2023-03-26T05:51:20;0.80;;;0.80;;
26060;SDS011;36331;51.378;0.018;2023-03-26T05:54:12;2.42;;;1.52;;
26060;SDS011;36331;51.378;0.018;2023-03-26T05:57:07;0.65;;;0.43;;
26060;SDS011;36331;51.378;0.018;2023-03-26T05:59:55;4.35;;;0.60;;
26060;SDS011;36331;51.378;0.018;2023-03-26T06:02:42;1.70;;;0.70;;
26060;SDS011;36331;51.378;0.018;2023-03-26T06:05:31;2.53;;;0.43;;
26060;SDS011;36331;51.378;0.018;2023-03-26T06:08:15;1.15;;;0.40;;
26060;SDS011;36331;51.378;0.018;2023-03-26T06:10:56;2.55;;;0.57;;
26060;SDS011;36331;51.378;0.018;2023-03-26T06:13:26;0.77;;;0.60;;
26060;SDS011;36331;51.378;0.018;2023-03-26T06:15:56;1.77;;;0.60;;
26060;SDS011;36331;51.378;0.018;2023-03-26T06:18:37;1.77;;;0.60;;
26060;SDS011;36331;51.378;0.018;2023-03-26T06:21:21;2.88;;;0.50;;
26060;SDS011;36331;51.378;0.018;2023-03-26T06:23:55;4.30;;;0.75;;
26060;SDS011;36331;51.378;0.018;2023-03-26T06:26:37;1.45;;;0.60;;
26060;SDS011;36331;51.378;0.018;2023-03-26T06:29:20;3.78;;;0.43;;
26060;SDS011;36331;51.378;0.018;2023-03-26T06:31:57;2.53;;;1.05;;
26060;SDS011;36331;51.378;0.018;2023-03-26T06:34:59;2.72;;;0.63;;
26060;SDS011;36331;51.378;0.018;2023-03-26T06:37:29;1.65;;;0.63;;
26060;SDS011;36331;51.378;0.018;2023-03-26T06:40:00;1.92;;;0.80;;
26060;SDS011;36331;51.378;0.018;2023-03-26T06:43:03;3.78;;;1.58;;
26060;SDS011;36331;51.378;0.018;2023-03-26T06:45:54;1.38;;;0.50;;
26060;SDS011;36331;51.378;0.018;2023-03-26T06:48:42;2.40;;;0.50;;
26060;SDS011;36331;51.378;0.018;2023-03-26T06:51:11;2.03;;;0.60;;
26060;SDS011;36331;51.378;0.018;2023-03-26T06:54:19;2.75;;;0.50;;
26060;SDS011;36331;51.378;0.018;2023-03-26T06:56:48;1.30;;;0.50;;
26060;SDS011;36331;51.378;0.018;2023-03-26T06:59:47;0.43;;;0.40;;
26060;SDS011;36331;51.378;0.018;2023-03-26T07:02:35;2.03;;;0.55;;
26060;SDS011;36331;51.378;0.018;2023-03-26T07:05:24;0.85;;;0.50;;
26060;SDS011;36331;51.378;0.018;2023-03-26T07:08:28;0.93;;;0.30;;
26060;SDS011;36331;51.378;0.018;2023-03-26T07:11:33;2.25;;;0.50;;
26060;SDS011;36331;51.378;0.018;2023-03-26T07:14:22;1.95;;;0.50;;
26060;SDS011;36331;51.378;0.018;2023-03-26T07:17:15;1.45;;;0.60;;
26060;SDS011;36331;51.378;0.018;2023-03-26T07:19:54;1.05;;;0.70;;
26060;SDS011;36331;51.378;0.018;2023-03-26T07:22:26;2.38;;;0.63;;
26060;SDS011;36331;51.378;0.018;2023-03-26T07:25:16;1.05;;;0.40;;
26060;SDS011;36331;51.378;0.018;2023-03-26T07:28:09;2.63;;;0.88;;
26060;SDS011;36331;51.378;0.018;2023-03-26T07:30:58;2.13;;;0.45;;
26060;SDS011;36331;51.378;0.018;2023-03-26T07:33:41;3.78;;;0.60;;
26060;SDS011;36331;51.378;0.018;2023-03-26T07:36:34;3.33;;;0.77;;
26060;SDS011;36331;51.378;0.018;2023-03-26T07:39:27;2.30;;;0.57;;
26060;SDS011;36331;51.378;0.018;2023-03-26T07:42:34;2.70;;;0.60;;
26060;SDS011;36331;51.378;0.018;2023-03-26T07:45:44;1.00;;;0.45;;
26060;SDS011;36331;51.378;0.018;2023-03-26T07:48:36;0.93;;;0.30;;
26060;SDS011;36331;51.378;0.018;2023-03-26T07:51:13;0.60;;;0.40;;
26060;SDS011;36331;51.378;0.018;2023-03-26T07:54:04;0.60;;;0.30;;
26060;SDS011;36331;51.378;0.018;2023-03-26T07:56:57;1.13;;;0.30;;
26060;SDS011;36331;51.378;0.018;2023-03-26T07:59:47;0.73;;;0.35;;
26060;SDS011;36331;51.378;0.018;2023-03-26T08:02:40;1.05;;;0.32;;
26060;SDS011;36331;51.378;0.018;2023-03-26T08:05:29;0.50;;;0.30;;
26060;SDS011;36331;51.378;0.018;2023-03-26T08:08:20;0.30;;;0.25;;
26060;SDS011;36331;51.378;0.018;2023-03-26T08:11:18;0.38;;;0.20;;
26060;SDS011;36331;51.378;0.018;2023-03-26T08:13:59;1.00;;;0.40;;
26060;SDS011;36331;51.378;0.018;2023-03-26T08:16:33;1.70;;;0.57;;
26060;SDS011;36331;51.378;0.018;2023-03-26T08:19:07;1.05;;;0.68;;
26060;SDS011;36331;51.378;0.018;2023-03-26T08:21:39;1.48;;;0.40;;
26060;SDS011;36331;51.378;0.018;2023-03-26T08:24:12;1.43;;;1.23;;
26060;SDS011;36331;51.378;0.018;2023-03-26T08:26:46;0.88;;;0.65;;
26060;SDS011;36331;51.378;0.018;2023-03-26T08:29:22;1.95;;;0.77;;
26060;SDS011;36331;51.378;0.018;2023-03-26T08:31:54;2.50;;;1.58;;
26060;SDS011;36331;51.378;0.018;2023-03-26T08:34:23;2.97;;;0.82;;
26060;SDS011;36331;51.378;0.018;2023-03-26T08:36:52;1.90;;;1.48;;
26060;SDS011;36331;51.378;0.018;2023-03-26T08:39:23;2.35;;;1.17;;
26060;SDS011;36331;51.378;0.018;2023-03-26T08:44:55;0.90;;;0.80;;
26060;SDS011;36331;51.378;0.018;2023-03-26T08:50:46;1.80;;;0.80;;
26060;SDS011;36331;51.378;0.018;2023-03-26T08:53:32;0.88;;;0.70;;
26060;SDS011;36331;51.378;0.018;2023-03-26T08:56:12;0.98;;;0.70;;
26060;SDS011;36331;51.378;0.018;2023-03-26T09:01:47;0.65;;;0.40;;
26060;SDS011;36331;51.378;0.018;2023-03-26T09:04:25;1.65;;;0.50;;
26060;SDS011;36331;51.378;0.018;2023-03-26T09:07:17;0.60;;;0.50;;
26060;SDS011;36331;51.378;0.018;2023-03-26T09:10:11;0.70;;;0.50;;
26060;SDS011;36331;51.378;0.018;2023-03-26T09:15:57;1.27;;;0.60;;
26060;SDS011;36331;51.378;0.018;2023-03-26T09:21:25;1.88;;;1.08;;
26060;SDS011;36331;51.378;0.018;2023-03-26T09:24:12;1.50;;;0.80;;
26060;SDS011;36331;51.378;0.018;2023-03-26T09:26:45;1.48;;;0.40;;
26060;SDS011;36331;51.378;0.018;2023-03-26T09:35:09;1.00;;;0.52;;
26060;SDS011;36331;51.378;0.018;2023-03-26T09:37:45;1.05;;;0.60;;
26060;SDS011;36331;51.378;0.018;2023-03-26T09:40:28;0.60;;;0.50;;
26060;SDS011;36331;51.378;0.018;2023-03-26T09:43:19;0.95;;;0.60;;
26060;SDS011;36331;51.378;0.018;2023-03-26T09:45:59;1.00;;;0.57;;
26060;SDS011;36331;51.378;0.018;2023-03-26T09:48:41;0.90;;;0.60;;
26060;SDS011;36331;51.378;0.018;2023-03-26T09:53:48;0.68;;;0.50;;
26060;SDS011;36331;51.378;0.018;2023-03-26T09:56:22;1.23;;;0.60;;
26060;SDS011;36331;51.378;0.018;2023-03-26T09:59:06;1.27;;;0.40;;
26060;SDS011;36331;51.378;0.018;2023-03-26T10:01:38;0.50;;;0.50;;
26060;SDS011;36331;51.378;0.018;2023-03-26T10:07:07;0.40;;;0.40;;
26060;SDS011;36331;51.378;0.018;2023-03-26T10:09:47;0.80;;;0.63;;
26060;SDS011;36331;51.378;0.018;2023-03-26T10:12:23;0.68;;;0.47;;
26060;SDS011;36331;51.378;0.018;2023-03-26T10:14:58;0.40;;;0.40;;
26060;SDS011;36331;51.378;0.018;2023-03-26T10:17:31;1.10;;;0.80;;
26060;SDS011;36331;51.378;0.018;2023-03-26T10:22:55;0.90;;;0.65;;
26060;SDS011;36331;51.378;0.018;2023-03-26T10:25:40;0.70;;;0.70;;
26060;SDS011;36331;51.378;0.018;2023-03-26T10:28:24;2.33;;;0.83;;
26060;SDS011;36331;51.378;0.018;2023-03-26T10:31:15;0.85;;;0.50;;
26060;SDS011;36331;51.378;0.018;2023-03-26T10:33:48;2.38;;;1.00;;
26060;SDS011;36331;51.378;0.018;2023-03-26T10:36:24;1.00;;;0.80;;
26060;SDS011;36331;51.378;0.018;2023-03-26T10:42:06;1.77;;;0.80;;
26060;SDS011;36331;51.378;0.018;2023-03-26T10:44:58;1.77;;;0.70;;
26060;SDS011;36331;51.378;0.018;2023-03-26T10:53:30;1.30;;;0.90;;
26060;SDS011;36331;51.378;0.018;2023-03-26T10:56:01;1.10;;;0.80;;
26060;SDS011;36331;51.378;0.018;2023-03-26T10:58:40;1.17;;;0.60;;
26060;SDS011;36331;51.378;0.018;2023-03-26T11:01:19;1.30;;;1.20;;
26060;SDS011;36331;51.378;0.018;2023-03-26T11:03:51;0.70;;;0.60;;
26060;SDS011;36331;51.378;0.018;2023-03-26T11:06:26;0.93;;;0.80;;
26060;SDS011;36331;51.378;0.018;2023-03-26T11:09:00;1.85;;;0.70;;
26060;SDS011;36331;51.378;0.018;2023-03-26T11:11:34;1.48;;;0.63;;
26060;SDS011;36331;51.378;0.018;2023-03-26T11:14:09;1.98;;;1.25;;
26060;SDS011;36331;51.378;0.018;2023-03-26T11:16:57;1.77;;;0.60;;
26060;SDS011;36331;51.378;0.018;2023-03-26T11:19:30;1.88;;;0.70;;
26060;SDS011;36331;51.378;0.018;2023-03-26T11:22:02;1.13;;;0.60;;
26060;SDS011;36331;51.378;0.018;2023-03-26T11:24:47;0.80;;;0.40;;
26060;SDS011;36331;51.378;0.018;2023-03-26T11:27:22;1.10;;;0.73;;
26060;SDS011;36331;51.378;0.018;2023-03-26T11:29:58;1.13;;;0.55;;
26060;SDS011;36331;51.378;0.018;2023-03-26T11:32:35;1.30;;;0.52;;
26060;SDS011;36331;51.378;0.018;2023-03-26T11:35:08;0.88;;;0.40;;
26060;SDS011;36331;51.378;0.018;2023-03-26T11:38:03;1.15;;;0.60;;
26060;SDS011;36331;51.378;0.018;2023-03-26T11:40:33;0.55;;;0.40;;
26060;SDS011;36331;51.378;0.018;2023-03-26T11:43:06;3.88;;;0.68;;
26060;SDS011;36331;51.378;0.018;2023-03-26T11:45:38;1.23;;;0.50;;
26060;SDS011;36331;51.378;0.018;2023-03-26T11:48:09;0.77;;;0.50;;
26060;SDS011;36331;51.378;0.018;2023-03-26T11:50:43;1.33;;;0.47;;
26060;SDS011;36331;51.378;0.018;2023-03-26T11:53:14;2.30;;;0.63;;
26060;SDS011;36331;51.378;0.018;2023-03-26T11:55:45;1.73;;;0.35;;
26060;SDS011;36331;51.378;0.018;2023-03-26T11:58:23;3.13;;;0.75;;
26060;SDS011;36331;51.378;0.018;2023-03-26T12:00:57;0.40;;;0.40;;
26060;SDS011;36331;51.378;0.018;2023-03-26T12:03:26;0.77;;;0.43;;
26060;SDS011;36331;51.378;0.018;2023-03-26T12:05:57;0.65;;;0.45;;
26060;SDS011;36331;51.378;0.018;2023-03-26T12:08:31;1.02;;;0.40;;
26060;SDS011;36331;51.378;0.018;2023-03-26T12:11:05;0.70;;;0.50;;
26060;SDS011;36331;51.378;0.018;2023-03-26T12:13:39;1.48;;;0.43;;
26060;SDS011;36331;51.378;0.018;2023-03-26T12:16:11;1.17;;;0.50;;
26060;SDS011;36331;51.378;0.018;2023-03-26T12:18:43;0.45;;;0.30;;
26060;SDS011;36331;51.378;0.018;2023-03-26T12:21:14;0.77;;;0.50;;
26060;SDS011;36331;51.378;0.018;2023-03-26T12:23:50;1.90;;;0.40;;
26060;SDS011;36331;51.378;0.018;2023-03-26T12:26:30;0.32;;;0.30;;
26060;SDS011;36331;51.378;0.018;2023-03-26T12:29:03;0.85;;;0.40;;
26060;SDS011;36331;51.378;0.018;2023-03-26T12:31:44;0.55;;;0.52;;
26060;SDS011;36331;51.378;0.018;2023-03-26T12:34:16;0.73;;;0.30;;
26060;SDS011;36331;51.378;0.018;2023-03-26T12:42:30;0.70;;;0.32;;
26060;SDS011;36331;51.378;0.018;2023-03-26T12:45:21;1.95;;;1.00;;
26060;SDS011;36331;51.378;0.018;2023-03-26T12:47:56;0.88;;;0.88;;
26060;SDS011;36331;51.378;0.018;2023-03-26T12:50:34;1.58;;;0.70;;
26060;SDS011;36331;51.378;0.018;2023-03-26T12:53:10;1.40;;;0.57;;
26060;SDS011;36331;51.378;0.018;2023-03-26T12:55:46;2.80;;;0.95;;
26060;SDS011;36331;51.378;0.018;2023-03-26T12:58:24;3.67;;;1.10;;
26060;SDS011;36331;51.378;0.018;2023-03-26T13:00:56;5.90;;;1.33;;
26060;SDS011;36331;51.378;0.018;2023-03-26T13:03:36;1.92;;;0.80;;
26060;SDS011;36331;51.378;0.018;2023-03-26T13:06:16;3.83;;;1.25;;
26060;SDS011;36331;51.378;0.018;2023-03-26T13:08:55;3.38;;;1.33;;
26060;SDS011;36331;51.378;0.018;2023-03-26T13:11:30;4.45;;;1.90;;
26060;SDS011;36331;51.378;0.018;2023-03-26T13:14:11;4.68;;;2.00;;
26060;SDS011;36331;51.378;0.018;2023-03-26T13:16:44;9.45;;;2.22;;
26060;SDS011;36331;51.378;0.018;2023-03-26T13:19:20;9.48;;;1.70;;
26060;SDS011;36331;51.378;0.018;2023-03-26T13:21:55;4.18;;;1.40;;
26060;SDS011;36331;51.378;0.018;2023-03-26T13:24:32;13.27;;;3.88;;
26060;SDS011;36331;51.378;0.018;2023-03-26T13:27:10;7.55;;;2.22;;
26060;SDS011;36331;51.378;0.018;2023-03-26T13:29:44;6.20;;;2.00;;
26060;SDS011;36331;51.378;0.018;2023-03-26T13:32:23;9.23;;;1.88;;
26060;SDS011;36331;51.378;0.018;2023-03-26T13:35:01;15.18;;;3.55;;
26060;SDS011;36331;51.378;0.018;2023-03-26T13:37:36;5.88;;;2.20;;
26060;SDS011;36331;51.378;0.018;2023-03-26T13:40:15;10.00;;;2.20;;
26060;SDS011;36331;51.378;0.018;2023-03-26T13:42:49;9.60;;;2.15;;
26060;SDS011;36331;51.378;0.018;2023-03-26T13:45:39;6.70;;;3.67;;
26060;SDS011;36331;51.378;0.018;2023-03-26T13:48:15;10.43;;;2.05;;
26060;SDS011;36331;51.378;0.018;2023-03-26T13:50:50;9.05;;;1.95;;
26060;SDS011;36331;51.378;0.018;2023-03-26T13:53:24;10.77;;;2.22;;
26060;SDS011;36331;51.378;0.018;2023-03-26T13:55:59;11.80;;;2.08;;
26060;SDS011;36331;51.378;0.018;2023-03-26T13:58:33;3.53;;;1.85;;
26060;SDS011;36331;51.378;0.018;2023-03-26T14:01:05;6.75;;;2.42;;
26060;SDS011;36331;51.378;0.018;2023-03-26T14:08:56;11.32;;;2.65;;
26060;SDS011;36331;51.378;0.018;2023-03-26T14:11:31;10.15;;;1.65;;
26060;SDS011;36331;51.378;0.018;2023-03-26T14:14:05;11.05;;;2.17;;
26060;SDS011;36331;51.378;0.018;2023-03-26T14:19:17;11.18;;;2.25;;
26060;SDS011;36331;51.378;0.018;2023-03-26T14:21:57;11.27;;;2.75;;
26060;SDS011;36331;51.378;0.018;2023-03-26T14:27:30;12.93;;;2.40;;
26060;SDS011;36331;51.378;0.018;2023-03-26T14:30:21;16.63;;;4.32;;
26060;SDS011;36331;51.378;0.018;2023-03-26T14:32:56;13.30;;;2.97;;
26060;SDS011;36331;51.378;0.018;2023-03-26T14:35:32;8.80;;;2.05;;
26060;SDS011;36331;51.378;0.018;2023-03-26T14:38:26;9.63;;;2.47;;
26060;SDS011;36331;51.378;0.018;2023-03-26T14:41:05;8.07;;;2.47;;
26060;SDS011;36331;51.378;0.018;2023-03-26T14:46:33;8.65;;;1.92;;
26060;SDS011;36331;51.378;0.018;2023-03-26T14:49:18;7.78;;;2.20;;
26060;SDS011;36331;51.378;0.018;2023-03-26T14:54:39;8.43;;;1.70;;
26060;SDS011;36331;51.378;0.018;2023-03-26T15:00:17;9.48;;;1.98;;
26060;SDS011;36331;51.378;0.018;2023-03-26T15:03:12;13.73;;;2.17;;
26060;SDS011;36331;51.378;0.018;2023-03-26T15:06:02;7.88;;;2.95;;
26060;SDS011;36331;51.378;0.018;2023-03-26T15:11:26;7.18;;;2.10;;
26060;SDS011;36331;51.378;0.018;2023-03-26T15:17:09;7.18;;;2.00;;
26060;SDS011;36331;51.378;0.018;2023-03-26T15:39:25;3.72;;;1.75;;
26060;SDS011;36331;51.378;0.018;2023-03-26T15:42:01;7.75;;;1.75;;
26060;SDS011;36331;51.378;0.018;2023-03-26T15:47:42;7.53;;;1.80;;
26060;SDS011;36331;51.378;0.018;2023-03-26T15:50:21;9.07;;;1.92;;
26060;SDS011;36331;51.378;0.018;2023-03-26T15:53:01;6.72;;;1.60;;
26060;SDS011;36331;51.378;0.018;2023-03-26T15:55:40;3.17;;;1.50;;
26060;SDS011;36331;51.378;0.018;2023-03-26T15:58:13;9.70;;;1.70;;
26060;SDS011;36331;51.378;0.018;2023-03-26T16:00:48;2.72;;;1.40;;
26060;SDS011;36331;51.378;0.018;2023-03-26T16:03:27;7.93;;;1.63;;
26060;SDS011;36331;51.378;0.018;2023-03-26T16:06:12;7.30;;;1.35;;
26060;SDS011;36331;51.378;0.018;2023-03-26T16:08:48;6.07;;;1.42;;
26060;SDS011;36331;51.378;0.018;2023-03-26T16:14:14;3.95;;;1.65;;
26060;SDS011;36331;51.378;0.018;2023-03-26T16:16:52;7.57;;;1.90;;
26060;SDS011;36331;51.378;0.018;2023-03-26T16:34:24;2.30;;;0.75;;
26060;SDS011;36331;51.378;0.018;2023-03-26T16:36:57;5.65;;;1.25;;
26060;SDS011;36331;51.378;0.018;2023-03-26T16:39:37;13.52;;;1.30;;
26060;SDS011;36331;51.378;0.018;2023-03-26T16:42:19;4.28;;;1.95;;
26060;SDS011;36331;51.378;0.018;2023-03-26T16:44:55;10.02;;;1.83;;
26060;SDS011;36331;51.378;0.018;2023-03-26T16:47:30;10.70;;;1.95;;
26060;SDS011;36331;51.378;0.018;2023-03-26T16:50:08;6.93;;;1.10;;
26060;SDS011;36331;51.378;0.018;2023-03-26T16:52:43;6.43;;;1.17;;
26060;SDS011;36331;51.378;0.018;2023-03-26T16:55:19;3.60;;;1.10;;
26060;SDS011;36331;51.378;0.018;2023-03-26T16:57:55;4.68;;;1.45;;
26060;SDS011;36331;51.378;0.018;2023-03-26T17:00:35;9.90;;;1.70;;
26060;SDS011;36331;51.378;0.018;2023-03-26T17:03:16;3.17;;;1.02;;
26060;SDS011;36331;51.378;0.018;2023-03-26T17:05:57;2.97;;;0.85;;
26060;SDS011;36331;51.378;0.018;2023-03-26T17:08:33;5.00;;;1.48;;
26060;SDS011;36331;51.378;0.018;2023-03-26T17:11:13;2.60;;;1.10;;
26060;SDS011;36331;51.378;0.018;2023-03-26T17:13:50;5.18;;;1.77;;
26060;SDS011;36331;51.378;0.018;2023-03-26T17:16:28;3.67;;;1.02;;
26060;SDS011;36331;51.378;0.018;2023-03-26T17:19:04;6.78;;;1.55;;
26060;SDS011;36331;51.378;0.018;2023-03-26T17:21:57;4.22;;;1.35;;
26060;SDS011;36331;51.378;0.018;2023-03-26T17:24:38;5.72;;;1.00;;
26060;SDS011;36331;51.378;0.018;2023-03-26T17:27:52;4.88;;;1.10;;
26060;SDS011;36331;51.378;0.018;2023-03-26T17:30:46;3.83;;;1.25;;
26060;SDS011;36331;51.378;0.018;2023-03-26T17:33:25;4.88;;;1.00;;
26060;SDS011;36331;51.378;0.018;2023-03-26T17:41:53;4.10;;;1.15;;
26060;SDS011;36331;51.378;0.018;2023-03-26T17:44:40;3.60;;;1.17;;
26060;SDS011;36331;51.378;0.018;2023-03-26T17:47:47;6.53;;;1.00;;
26060;SDS011;36331;51.378;0.018;2023-03-26T17:50:30;4.88;;;0.77;;
26060;SDS011;36331;51.378;0.018;2023-03-26T17:53:14;2.58;;;1.13;;